Last 24 Hours

Canyon Lodge - 8,343ft

5 Minute Data | America/Los_Angeles
as of 5/4/26 7:52 AM PDT
Date & Time Temp (°F) RH (%) Dew Pt (°F) Wet Bulb (°F) Wind Dir (°) Wind Spd (mph) Wind Gust (mph) Wind Gst Dir (°)
5/4/26 - 0750 40.1 37 15.8 32.0 N | 2 2.3 8.6 NNW | 334
5/4/26 - 0745 40.1 37 16.0 32.1 NNE | 27 1.0 5.5 WNW | 294
5/4/26 - 0740 40.1 38 16.8 32.2 N | 357 0.8 4.7 N | 6
5/4/26 - 0735 39.4 38 15.9 31.6 N | 358 0.8 3.1 N | 5
5/4/26 - 0730 39.4 38 15.7 31.6 N | 3 1.1 4.9 N | 0
5/4/26 - 0725 39.5 38 16.2 31.7 NW | 324 0.7 2.7 NE | 34
5/4/26 - 0720 39.5 37 15.5 31.6 N | 5 0.9 4.2 NW | 317
5/4/26 - 0715 40.0 37 15.8 31.9 N | 3 0.4 4.6 NNW | 330
5/4/26 - 0710 40.2 38 16.5 32.2 NW | 312 0.2 2.4 NW | 311
5/4/26 - 0705 39.4 38 16.1 31.6 NW | 321 0.3 2.4 WNW | 296
5/4/26 - 0700 38.8 38 15.2 31.1 WSW | 258 0.4 2.4 SW | 236
5/4/26 - 0655 38.1 38 14.8 30.6 NNW | 346 1.5 3.4 NW | 324
5/4/26 - 0650 38.6 38 15.3 31.0 SW | 232 2.0 4.8 SW | 229
5/4/26 - 0645 37.3 38 14.0 29.9 WNW | 285 0.6 3.0 W | 262
5/4/26 - 0640 36.9 38 13.5 29.6 NW | 323 1.9 3.8 NW | 317
5/4/26 - 0635 37.0 37 13.3 29.6 SW | 220 0.5 3.9 SW | 230
5/4/26 - 0630 36.8 37 13.3 29.5 SW | 234 1.9 5.9 WSW | 242
5/4/26 - 0625 36.1 38 12.8 28.9 WSW | 254 1.8 5.5 WSW | 243
5/4/26 - 0620 35.5 38 12.4 28.5 WNW | 288 1.6 4.3 W | 273
5/4/26 - 0615 35.8 38 12.8 28.7 W | 276 0.3 3.2 W | 264
5/4/26 - 0610 35.4 38 12.5 28.4 W | 263 0.6 2.5 WSW | 256
5/4/26 - 0605 34.6 37 11.0 27.6 WNW | 288 0.0 1.6 W | 280
5/4/26 - 0600 34.7 38 11.4 27.8 S | 175 0.0 0.0 S | 175
5/4/26 - 0555 34.5 38 11.2 27.6 N | 0 0.0 0.0 SW | 219
5/4/26 - 0550 35.1 38 12.2 28.2 WNW | 288 0.2 2.4 WNW | 302
5/4/26 - 0545 34.9 38 12.0 28.0 W | 278 0.1 2.2 W | 281
5/4/26 - 0540 34.5 38 11.7 27.7 W | 279 0.9 3.0 W | 271
5/4/26 - 0535 34.2 38 11.4 27.5 WNW | 291 0.3 2.1 WNW | 299
5/4/26 - 0530 34.2 40 12.2 27.6 WNW | 297 0.9 2.6 NW | 308
5/4/26 - 0525 34.5 40 12.6 27.9 WNW | 286 0.3 2.3 W | 268
5/4/26 - 0520 34.0 39 11.6 27.4 WNW | 292 0.9 3.1 WNW | 283
5/4/26 - 0515 33.8 39 11.5 27.2 NW | 317 0.4 2.5 NW | 319
5/4/26 - 0510 34.2 40 12.2 27.6 WSW | 249 0.0 0.9 WSW | 254
5/4/26 - 0505 34.5 40 12.4 27.8 WNW | 297 0.3 2.1 W | 275
5/4/26 - 0500 34.5 39 12.3 27.8 WNW | 296 0.3 2.0 NW | 319
5/4/26 - 0455 34.5 40 12.5 27.8 N | 0 0.0 0.0 NNW | 335
5/4/26 - 0450 34.1 40 12.2 27.6 N | 0 0.0 0.0 SSW | 212
5/4/26 - 0445 34.0 39 11.7 27.4 SW | 220 0.0 0.4 WSW | 249
5/4/26 - 0440 34.1 39 11.7 27.5 NW | 304 0.1 1.2 NW | 308
5/4/26 - 0435 34.6 38 11.8 27.8 SSW | 203 0.1 0.9 WSW | 238
5/4/26 - 0430 34.2 37 10.8 27.4 W | 269 0.7 2.5 W | 278
5/4/26 - 0425 34.1 38 11.1 27.3 WNW | 291 0.6 2.0 WNW | 282
5/4/26 - 0420 34.2 39 11.7 27.5 SSW | 201 0.0 0.5 SSW | 201
5/4/26 - 0415 34.2 38 11.0 27.4 W | 264 0.5 2.7 W | 280
5/4/26 - 0410 34.0 36 10.1 27.1 WNW | 285 1.4 3.7 W | 281
5/4/26 - 0405 34.5 37 10.7 27.5 WNW | 287 1.0 3.4 W | 280
5/4/26 - 0400 34.9 37 11.4 27.9 W | 279 1.4 4.6 W | 278
5/4/26 - 0355 34.5 38 11.3 27.6 WNW | 286 1.4 4.7 W | 278
5/4/26 - 0350 34.7 38 11.8 27.9 W | 278 1.4 4.4 W | 275
5/4/26 - 0345 34.4 39 11.8 27.6 WNW | 301 1.4 3.3 NW | 310
5/4/26 - 0340 35.2 38 12.0 28.2 WSW | 249 1.2 4.1 SW | 236
5/4/26 - 0335 34.8 38 11.9 28.0 WSW | 257 1.3 3.7 W | 268
5/4/26 - 0330 34.5 38 11.6 27.7 W | 275 0.1 1.1 WSW | 246
5/4/26 - 0325 34.6 37 11.1 27.6 WSW | 251 0.5 2.1 WSW | 245
5/4/26 - 0320 34.6 37 11.1 27.6 W | 260 1.2 4.9 SW | 228
5/4/26 - 0315 34.5 37 10.9 27.5 W | 261 1.0 4.8 WSW | 258
5/4/26 - 0310 34.2 38 11.1 27.4 W | 277 0.4 2.2 W | 270
5/4/26 - 0305 34.4 38 11.4 27.6 W | 279 0.5 2.4 WNW | 294
5/4/26 - 0300 34.2 38 11.0 27.4 W | 266 0.3 2.0 W | 275
5/4/26 - 0255 33.9 37 10.6 27.1 WNW | 293 0.2 3.0 WNW | 286
5/4/26 - 0250 34.3 38 11.2 27.5 W | 259 0.2 2.0 WSW | 245
5/4/26 - 0245 34.0 37 10.5 27.2 SSW | 213 0.5 2.5 S | 190
5/4/26 - 0240 33.7 37 10.2 26.9 WSW | 245 0.2 1.3 W | 262
5/4/26 - 0235 33.3 37 9.8 26.6 S | 169 0.0 0.2 SSE | 167
5/4/26 - 0230 33.4 37 10.2 26.7 SSW | 200 0.0 1.0 SSW | 200
5/4/26 - 0225 33.8 37 10.3 27.0 WNW | 284 0.2 1.9 W | 275
5/4/26 - 0220 34.0 36 10.0 27.1 S | 190 0.6 3.4 SSW | 199
5/4/26 - 0215 34.2 37 10.8 27.4 W | 278 0.1 1.3 NW | 316
5/4/26 - 0210 34.1 37 10.5 27.2 N | 0 0.0 0.0 WNW | 291
5/4/26 - 0205 34.2 37 10.5 27.3 SSW | 211 0.1 1.2 S | 188
5/4/26 - 0200 34.5 36 10.3 27.4 SSW | 194 0.1 1.4 SSE | 166
5/4/26 - 0155 34.1 36 9.9 27.1 SW | 214 1.0 2.7 W | 267
5/4/26 - 0150 34.0 36 10.1 27.1 WSW | 258 0.2 2.8 WSW | 257
5/4/26 - 0145 33.9 36 9.4 26.9 WNW | 296 0.7 2.6 NW | 316
5/4/26 - 0140 34.4 35 9.5 27.2 SSW | 199 0.2 2.0 S | 182
5/4/26 - 0135 34.6 35 9.9 27.4 W | 278 0.0 1.1 WNW | 288
5/4/26 - 0130 35.6 36 11.5 28.4 SW | 234 0.6 2.4 W | 270
5/4/26 - 0125 35.8 36 11.2 28.4 WSW | 246 1.1 2.4 SSW | 202
5/4/26 - 0120 36.0 36 11.6 28.6 WSW | 237 0.8 2.9 SW | 232
5/4/26 - 0115 36.0 36 11.5 28.6 SW | 229 0.9 3.0 SW | 226
5/4/26 - 0110 36.0 36 11.8 28.7 WSW | 256 0.7 4.9 WNW | 282
5/4/26 - 0105 36.1 36 11.9 28.8 W | 270 0.7 3.4 W | 269
5/4/26 - 0100 36.2 36 12.1 28.9 W | 269 0.3 1.4 SW | 223
5/4/26 - 0055 35.9 37 12.3 28.7 W | 268 0.1 2.0 W | 262
5/4/26 - 0050 35.8 36 11.6 28.5 W | 259 0.1 1.0 WSW | 257
5/4/26 - 0045 35.8 35 11.0 28.4 W | 279 0.7 2.5 W | 278
5/4/26 - 0040 35.6 35 10.7 28.2 W | 275 0.8 3.1 WNW | 286
5/4/26 - 0035 35.6 35 10.6 28.2 W | 268 1.1 2.8 WSW | 247
5/4/26 - 0030 35.5 36 11.2 28.3 WSW | 258 0.4 2.9 WNW | 284
5/4/26 - 0025 35.8 36 11.3 28.4 W | 266 0.6 2.9 WNW | 283
5/4/26 - 0020 35.6 36 11.0 28.3 W | 263 0.6 1.9 WNW | 283
5/4/26 - 0015 35.2 36 10.7 27.9 WNW | 284 0.9 2.4 W | 279
5/4/26 - 0010 35.1 35 10.1 27.8 WNW | 294 1.8 3.4 W | 281
5/4/26 - 0005 36.4 36 12.0 28.9 WNW | 282 0.8 3.7 WNW | 294
5/4/26 - 0000 36.8 35 11.8 29.2 WSW | 255 0.9 2.8 W | 264
5/3/26 - 2355 36.9 37 12.9 29.5 WSW | 244 1.8 3.4 WSW | 253
5/3/26 - 2350 36.0 35 11.3 28.6 W | 260 0.6 2.5 WSW | 239
5/3/26 - 2345 36.3 35 11.6 28.8 WSW | 254 0.9 3.7 WNW | 302
5/3/26 - 2340 35.8 35 10.7 28.3 WSW | 255 0.4 2.1 SW | 225
5/3/26 - 2335 35.4 36 10.8 28.1 W | 259 0.5 2.2 WNW | 286
5/3/26 - 2330 34.9 35 10.1 27.7 W | 262 1.0 3.0 WSW | 252
5/3/26 - 2325 34.7 35 9.9 27.5 WSW | 257 0.5 1.8 W | 260
5/3/26 - 2320 34.1 35 9.3 27.0 WSW | 254 0.8 2.5 WSW | 255
5/3/26 - 2315 34.4 34 8.8 27.1 WSW | 258 1.0 2.5 W | 260
5/3/26 - 2310 34.5 34 8.9 27.2 SW | 217 0.9 2.8 S | 190
5/3/26 - 2305 34.5 34 9.3 27.2 W | 278 1.2 3.2 W | 277
5/3/26 - 2300 34.5 34 9.2 27.2 WNW | 284 1.4 3.2 WNW | 288
5/3/26 - 2255 35.8 34 10.4 28.2 WSW | 256 0.0 0.8 W | 274
5/3/26 - 2250 35.8 34 9.8 28.2 W | 262 - - WSW | 252
5/3/26 - 2245 35.2 33 9.1 27.7 WNW | 296 1.2 3.8 NW | 310
5/3/26 - 2240 37.3 32 10.4 29.2 SW | 225 1.2 3.6 SW | 227
5/3/26 - 2235 36.8 32 10.0 28.8 SW | 224 1.5 3.9 SW | 231
5/3/26 - 2230 36.7 33 10.2 28.8 SW | 220 0.8 2.9 SW | 222
5/3/26 - 2225 36.9 34 10.9 29.1 SSW | 210 1.3 4.1 SSW | 196
5/3/26 - 2220 37.0 33 10.7 29.1 SW | 218 1.2 6.3 SSW | 211
5/3/26 - 2215 36.9 34 10.9 29.1 WSW | 247 0.4 3.4 SW | 225
5/3/26 - 2210 37.4 33 10.8 29.4 WSW | 254 1.8 6.6 SSW | 211
5/3/26 - 2205 37.5 33 11.2 29.5 SW | 229 1.4 5.5 SW | 234
5/3/26 - 2200 37.9 34 11.7 29.8 WSW | 248 1.6 5.4 WSW | 246
5/3/26 - 2155 37.8 34 11.7 29.7 W | 272 1.8 6.4 WSW | 248
5/3/26 - 2150 37.2 34 11.6 29.4 SW | 234 0.6 3.6 WSW | 243
5/3/26 - 2145 37.0 34 11.4 29.2 WNW | 289 1.7 5.2 WSW | 248
5/3/26 - 2140 36.9 34 11.3 29.2 NW | 319 4.0 11.4 NNW | 327
5/3/26 - 2135 36.7 34 11.2 29.0 NW | 317 1.5 4.8 NNW | 334
5/3/26 - 2130 36.5 34 10.6 28.7 NW | 312 0.4 3.1 NW | 324
5/3/26 - 2125 36.2 34 10.3 28.5 W | 262 0.9 4.6 WSW | 254
5/3/26 - 2120 36.2 34 10.5 28.6 W | 270 - - WNW | 300
5/3/26 - 2115 36.4 33 10.3 28.6 WSW | 241 0.2 2.9 WSW | 256
5/3/26 - 2110 36.6 33 10.3 28.8 WNW | 293 0.4 3.0 W | 281
5/3/26 - 2105 37.0 34 11.2 29.2 W | 277 0.2 3.7 WSW | 239
5/3/26 - 2100 37.3 33 11.1 29.3 W | 279 2.0 6.8 W | 279
5/3/26 - 2055 38.4 34 12.3 30.2 NW | 311 3.5 10.5 NNW | 345
5/3/26 - 2050 39.5 34 13.7 31.2 WNW | 283 0.7 2.1 WNW | 282
5/3/26 - 2045 39.9 33 13.4 31.4 S | 186 1.8 6.3 SW | 215
5/3/26 - 2040 39.5 33 12.7 31.0 S | 190 3.4 10.1 S | 188
5/3/26 - 2035 39.2 33 12.5 30.8 SW | 216 4.5 11.6 W | 261
5/3/26 - 2030 39.5 33 12.6 31.0 S | 185 5.2 13.1 SSW | 198
5/3/26 - 2025 40.1 33 13.5 31.5 SSW | 206 3.0 10.3 S | 172
5/3/26 - 2020 40.2 33 13.6 31.6 SW | 220 2.0 6.7 SW | 223
5/3/26 - 2015 40.2 33 13.2 31.5 SSW | 197 4.3 11.3 SW | 229
5/3/26 - 2010 40.3 33 13.4 31.6 SSW | 193 3.5 11.6 S | 188
5/3/26 - 2005 40.0 33 13.2 31.4 SSE | 167 2.3 6.3 SSE | 165
5/3/26 - 2000 40.2 33 13.1 31.5 SW | 215 1.4 5.3 S | 180
5/3/26 - 1955 40.3 32 12.7 31.5 SSW | 213 5.0 14.0 WSW | 250
5/3/26 - 1950 39.9 32 12.3 31.2 S | 180 4.8 14.1 SSW | 192
5/3/26 - 1945 39.4 32 12.0 30.8 WNW | 285 1.7 7.2 W | 270
5/3/26 - 1940 38.9 31 11.0 30.3 SSE | 149 2.3 7.1 S | 182
5/3/26 - 1935 38.3 32 10.8 29.9 SE | 145 1.5 4.9 SE | 125
5/3/26 - 1930 38.3 32 10.9 29.9 WSW | 240 1.2 6.8 NW | 306
5/3/26 - 1925 38.1 32 10.7 29.8 NW | 312 5.0 14.7 NW | 313
5/3/26 - 1920 38.5 31 10.3 29.9 WSW | 238 3.2 8.8 SW | 228
5/3/26 - 1915 38.1 31 9.9 29.6 WSW | 256 2.2 8.6 WNW | 290
5/3/26 - 1910 38.4 30 9.7 29.7 SW | 217 2.9 8.3 WSW | 249
5/3/26 - 1905 38.0 31 9.8 29.5 S | 183 2.9 6.4 SSW | 201
5/3/26 - 1900 38.4 31 10.0 29.8 SW | 225 2.3 7.3 W | 263
5/3/26 - 1855 38.1 31 10.2 29.7 W | 281 4.5 12.2 W | 277
5/3/26 - 1850 37.5 31 9.6 29.2 NW | 309 5.1 14.1 NW | 322
5/3/26 - 1845 37.4 31 9.3 29.1 W | 262 1.5 8.1 SW | 235
5/3/26 - 1840 37.1 31 9.4 28.9 WNW | 282 2.6 7.5 WNW | 282
5/3/26 - 1835 37.3 31 9.4 29.0 W | 273 1.6 5.3 SW | 223
5/3/26 - 1830 37.8 31 9.5 29.3 WSW | 238 0.9 3.5 WNW | 298
5/3/26 - 1825 38.5 30 10.0 29.9 ESE | 106 1.0 4.1 ESE | 108
5/3/26 - 1820 38.3 31 10.1 29.8 SW | 234 1.7 4.6 WSW | 238
5/3/26 - 1815 38.1 30 9.5 29.6 SSW | 200 2.5 5.9 SSW | 192
5/3/26 - 1810 38.5 31 10.1 29.9 S | 188 4.2 7.2 S | 179
5/3/26 - 1805 39.2 31 11.0 30.5 S | 181 3.8 6.9 SSW | 195
5/3/26 - 1800 40.0 32 12.2 31.2 S | 184 4.6 10.0 S | 188
5/3/26 - 1755 41.8 32 14.1 32.6 SW | 228 2.9 8.3 SSW | 201
5/3/26 - 1750 42.9 32 15.1 33.5 W | 272 3.1 9.6 W | 268
5/3/26 - 1745 44.3 31 15.7 34.4 S | 173 0.7 4.7 SE | 146
5/3/26 - 1740 44.7 31 15.9 34.7 SSE | 162 1.0 4.1 SSE | 152
5/3/26 - 1735 44.4 30 15.3 34.4 SSE | 158 2.3 6.1 SSE | 149
5/3/26 - 1730 45.3 31 16.6 35.1 SSW | 199 2.1 8.4 SSW | 196
5/3/26 - 1725 45.4 31 16.8 35.2 SW | 220 3.5 8.3 WSW | 238
5/3/26 - 1720 45.8 32 18.0 35.8 SSW | 212 2.4 6.3 SW | 227
5/3/26 - 1715 45.5 32 17.2 35.4 SW | 223 3.1 6.5 WSW | 245
5/3/26 - 1710 46.0 31 17.4 35.7 SW | 235 2.2 7.7 SSW | 194
5/3/26 - 1705 45.7 31 16.8 35.4 SW | 217 2.3 8.2 S | 188
5/3/26 - 1700 45.6 31 17.1 35.4 SSW | 196 3.8 11.6 SSW | 210
5/3/26 - 1655 45.5 32 17.4 35.4 SW | 217 5.7 11.6 W | 264
5/3/26 - 1650 45.5 32 17.6 35.5 SSW | 209 3.2 10.4 SSW | 208
5/3/26 - 1645 45.5 32 17.5 35.5 SSW | 202 4.3 12.2 SW | 228
5/3/26 - 1640 45.4 32 17.4 35.4 SW | 227 4.3 11.0 S | 184
5/3/26 - 1635 44.8 32 16.5 34.8 SSW | 197 2.9 8.2 SSW | 200
5/3/26 - 1630 44.2 32 16.1 34.4 SSW | 208 3.4 11.1 SSW | 193
5/3/26 - 1625 44.6 32 16.4 34.7 SSW | 202 2.7 9.6 S | 171
5/3/26 - 1620 44.6 32 16.7 34.8 SSW | 206 2.3 7.0 SSW | 198
5/3/26 - 1615 44.6 32 16.8 34.8 SSW | 201 3.6 10.1 S | 189
5/3/26 - 1610 44.6 33 17.0 34.8 S | 179 5.0 12.5 SE | 136
5/3/26 - 1605 44.9 33 17.4 35.1 SSW | 198 2.8 8.3 SW | 219
5/3/26 - 1600 45.4 33 17.9 35.5 SW | 216 0.9 5.7 S | 185
5/3/26 - 1555 45.5 32 17.7 35.5 S | 184 0.6 4.0 SSW | 202
5/3/26 - 1550 45.3 32 17.4 35.3 S | 189 0.9 4.6 S | 189
5/3/26 - 1545 45.0 32 17.3 35.2 S | 177 1.5 6.3 SSW | 194
5/3/26 - 1540 44.9 33 17.3 35.1 SSW | 208 0.6 4.0 S | 187
5/3/26 - 1535 44.9 32 17.0 35.0 S | 181 2.1 7.5 S | 184
5/3/26 - 1530 45.6 31 17.1 35.4 S | 185 0.4 2.7 SSE | 148
5/3/26 - 1525 45.6 31 16.6 35.3 SE | 131 1.4 3.7 E | 83
5/3/26 - 1520 45.3 32 17.0 35.2 ESE | 114 0.5 2.9 ESE | 116
5/3/26 - 1515 44.8 32 16.9 34.9 ESE | 116 1.1 2.8 SE | 126
5/3/26 - 1510 44.7 32 16.8 34.9 S | 189 0.5 2.4 S | 182
5/3/26 - 1505 44.6 31 16.0 34.6 SE | 131 0.6 2.7 ESE | 120
5/3/26 - 1500 44.7 32 16.3 34.8 ESE | 103 0.9 4.3 ENE | 73
5/3/26 - 1455 44.9 32 16.8 35.0 SE | 124 1.9 7.9 SE | 124
5/3/26 - 1450 45.8 32 17.9 35.7 ESE | 122 0.4 3.3 ESE | 118
5/3/26 - 1445 45.7 32 17.7 35.6 ESE | 119 0.4 2.1 ESE | 113
5/3/26 - 1440 45.7 32 17.7 35.6 SSE | 156 0.9 6.8 S | 174
5/3/26 - 1435 45.4 33 17.8 35.5 SW | 214 0.7 2.4 SSE | 154
5/3/26 - 1430 45.3 32 17.3 35.3 ESE | 112 0.9 4.6 E | 86
5/3/26 - 1425 45.2 33 17.6 35.3 ESE | 108 0.8 3.5 ESE | 104
5/3/26 - 1420 45.5 33 17.8 35.5 SE | 125 0.8 6.1 ESE | 118
5/3/26 - 1415 45.6 33 18.3 35.7 N | 0 0.0 0.0 WNW | 303
5/3/26 - 1410 45.3 33 18.2 35.5 WNW | 292 0.0 0.1 W | 281
5/3/26 - 1405 44.7 32 16.9 34.9 NNW | 332 0.9 2.5 NNW | 330
5/3/26 - 1400 44.8 32 16.6 34.9 N | 352 0.2 2.1 NNW | 340
5/3/26 - 1355 44.2 33 16.7 34.6 NW | 306 1.8 5.8 WSW | 241
5/3/26 - 1350 44.9 33 17.3 35.1 SW | 222 3.4 7.1 WSW | 242
5/3/26 - 1345 45.3 33 18.0 35.4 SW | 217 3.7 9.8 WSW | 257
5/3/26 - 1340 46.0 33 18.5 36.0 SW | 228 1.3 4.8 WSW | 253
5/3/26 - 1335 46.0 33 18.7 36.0 SW | 218 0.8 3.2 SSW | 204
5/3/26 - 1330 46.1 34 19.3 36.2 WNW | 297 0.0 1.1 NW | 312
5/3/26 - 1325 45.5 32 17.1 35.4 NE | 43 0.0 0.7 E | 80
5/3/26 - 1320 45.2 33 17.5 35.3 NNW | 343 0.4 2.3 NNE | 29
5/3/26 - 1315 44.7 33 17.1 34.9 N | 3 2.1 3.8 N | 0
5/3/26 - 1310 44.6 32 16.5 34.7 N | 6 2.6 5.5 N | 8
5/3/26 - 1305 44.9 32 16.8 35.0 N | 357 1.3 3.5 NE | 35
5/3/26 - 1300 45.0 31 16.1 34.9 N | 8 1.6 3.7 NNE | 20
5/3/26 - 1255 44.7 32 16.7 34.8 N | 4 1.1 2.5 NNE | 14
5/3/26 - 1250 44.3 33 16.9 34.7 NNE | 13 3.3 6.4 NNE | 20
5/3/26 - 1245 44.1 34 17.4 34.7 SW | 227 2.1 6.3 SSW | 199
5/3/26 - 1240 44.1 33 16.9 34.5 SSW | 213 1.7 5.8 SSW | 202
5/3/26 - 1235 44.0 33 16.9 34.5 S | 183 4.8 14.4 SSE | 160
5/3/26 - 1230 44.0 33 16.7 34.4 S | 185 3.2 7.4 S | 183
5/3/26 - 1225 43.9 34 17.0 34.4 S | 175 2.0 8.2 SSW | 208
5/3/26 - 1220 43.6 34 17.0 34.3 S | 175 3.8 11.8 SSW | 204
5/3/26 - 1215 43.7 34 16.9 34.4 SSW | 192 4.1 10.4 SSW | 203
5/3/26 - 1210 43.6 34 16.8 34.3 S | 169 6.2 14.2 SSE | 153
5/3/26 - 1205 44.1 33 17.0 34.6 S | 185 7.4 15.2 SSW | 196
5/3/26 - 1200 45.2 33 18.1 35.4 S | 185 3.9 11.4 S | 190
5/3/26 - 1155 45.5 34 18.5 35.7 S | 184 6.4 11.9 S | 177
5/3/26 - 1150 46.1 33 18.8 36.1 SSW | 192 4.8 13.0 SSE | 158
5/3/26 - 1145 46.7 34 19.7 36.6 SSW | 200 4.7 10.4 S | 189
5/3/26 - 1140 46.3 33 19.0 36.3 SSW | 194 4.0 12.8 SSW | 196
5/3/26 - 1135 46.0 34 18.9 36.1 SSW | 196 3.8 10.8 S | 189
5/3/26 - 1130 46.0 33 18.4 35.9 S | 183 4.0 12.7 SSW | 196
5/3/26 - 1125 46.3 33 19.1 36.3 SSE | 158 1.2 5.6 S | 177
5/3/26 - 1120 46.5 34 19.3 36.4 S | 182 2.7 9.9 SSW | 196
5/3/26 - 1115 47.2 34 20.5 37.1 S | 182 2.4 6.1 SSW | 208
5/3/26 - 1110 47.8 36 22.0 37.8 S | 190 1.8 5.0 SSW | 210
5/3/26 - 1105 47.9 36 22.0 37.8 WNW | 298 1.4 5.6 W | 274
5/3/26 - 1100 48.0 34 21.3 37.7 NW | 321 2.6 6.9 NNW | 342
5/3/26 - 1055 48.7 34 21.4 38.1 S | 172 0.3 3.9 SSW | 193
5/3/26 - 1050 48.3 33 20.7 37.8 S | 178 0.8 3.8 SW | 222
5/3/26 - 1045 48.2 32 19.8 37.5 SSW | 203 2.6 5.6 SSW | 193
5/3/26 - 1040 48.3 32 19.9 37.6 S | 181 2.9 5.2 SSW | 198
5/3/26 - 1035 48.3 32 20.0 37.6 S | 189 2.4 5.2 SSE | 167
5/3/26 - 1030 48.8 32 20.6 38.0 SSE | 165 1.3 4.9 S | 181
5/3/26 - 1025 48.8 32 20.6 38.0 SSE | 156 1.6 6.1 SSE | 158
5/3/26 - 1020 48.2 32 20.0 37.5 SE | 133 1.7 6.1 SSE | 167
5/3/26 - 1015 49.5 33 21.4 38.5 SSE | 152 2.1 6.7 SSE | 147
5/3/26 - 1010 48.4 33 20.4 37.8 NNE | 13 2.9 6.4 NNE | 26
5/3/26 - 1005 49.0 34 21.7 38.4 NNE | 14 1.4 5.2 N | 1
5/3/26 - 1000 47.5 34 20.6 37.3 N | 355 4.8 10.1 ENE | 72
5/3/26 - 0955 49.0 34 22.0 38.5 NNE | 12 3.3 8.9 N | 0
5/3/26 - 0950 50.2 34 23.1 39.4 SE | 146 1.3 4.3 SSE | 150
5/3/26 - 0945 49.0 34 21.7 38.4 NE | 40 0.6 5.0 ESE | 103
5/3/26 - 0940 47.7 33 20.3 37.4 NNE | 17 2.4 6.4 NNE | 13
5/3/26 - 0935 49.6 35 22.8 39.0 ENE | 62 0.7 4.5 NNE | 21
5/3/26 - 0930 47.9 35 21.6 37.8 S | 175 1.4 4.7 S | 178
5/3/26 - 0925 47.4 35 20.9 37.3 E | 97 2.3 6.0 ESE | 106
5/3/26 - 0920 47.2 35 21.1 37.2 NNW | 333 4.8 8.4 WNW | 295
5/3/26 - 0915 47.2 35 21.0 37.2 NNE | 22 1.7 8.1 N | 2
5/3/26 - 0910 46.7 35 20.4 36.8 NE | 49 1.5 5.3 NNE | 32
5/3/26 - 0905 47.3 36 21.7 37.4 NNW | 342 0.5 2.2 NW | 311
5/3/26 - 0900 47.4 36 21.4 37.4 NW | 322 0.1 1.8 WNW | 289
5/3/26 - 0855 45.9 35 19.8 36.2 NNW | 348 1.4 5.6 NW | 313
5/3/26 - 0850 45.6 36 20.0 36.1 NNW | 348 0.1 1.2 NNE | 29
5/3/26 - 0845 45.7 34 19.0 36.0 NNE | 15 0.2 1.5 N | 8
5/3/26 - 0840 46.0 35 19.5 36.2 SSE | 151 0.0 0.8 SSE | 155
5/3/26 - 0835 45.7 35 19.6 36.1 S | 184 0.2 1.3 SSW | 194
5/3/26 - 0830 44.8 35 18.9 35.4 SSW | 209 0.8 2.5 SSW | 205
5/3/26 - 0825 44.4 35 18.4 35.1 SSW | 212 1.2 3.7 SW | 216
5/3/26 - 0820 44.2 34 17.7 34.8 S | 185 0.1 1.5 S | 188
5/3/26 - 0815 43.9 34 17.6 34.6 N | 0 0.0 0.0 N | 7
5/3/26 - 0810 43.9 34 17.6 34.6 N | 0 0.0 0.0 SSE | 164
5/3/26 - 0805 44.0 36 18.6 34.9 N | 0 0.0 0.0 SE | 141
5/3/26 - 0800 43.6 37 18.8 34.7 S | 181 0.0 1.2 SSW | 192
5/3/26 - 0755 43.2 36 18.2 34.3 N | 3 0.1 1.3 NNE | 19
5/3/26 - 0750 43.3 36 17.9 34.3 NNW | 345 0.4 2.3 NNW | 347
Max 50.2 40 23.1 39.4 - 7.4 15.2 -
Avg 40.3 34 14.4 31.8 - 1.5 5.0 -
Min 33.3 30 8.8 26.6 - 0.0 0.0 -